createdAt,value
2018-10-16T00:01:55.595Z,98315.87
2018-10-16T00:04:24.843Z,98301.51
2018-10-16T00:06:54.249Z,98303.17
2018-10-16T00:09:23.472Z,98286.72
2018-10-16T00:12:03.487Z,98273.23
2018-10-16T00:14:33.019Z,98204.09
2018-10-16T00:17:03.336Z,98193.95
2018-10-16T00:19:32.951Z,98179.20
2018-10-16T00:22:02.807Z,98179.20
2018-10-16T00:24:32.014Z,98172.04
2018-10-16T00:27:01.249Z,98170.34
2018-10-16T00:29:30.448Z,98168.64
2018-10-16T00:31:59.668Z,98172.01
2018-10-16T00:34:28.879Z,98166.08
2018-10-16T00:36:58.091Z,98173.23
2018-10-16T00:39:27.325Z,98166.08
2018-10-16T00:41:57.563Z,98157.64
2018-10-16T00:44:26.781Z,98153.02
2018-10-16T00:46:55.983Z,98155.56
2018-10-16T00:49:25.200Z,98145.86
2018-10-16T00:51:54.403Z,98147.52
2018-10-16T00:54:23.623Z,98153.42
2018-10-16T00:56:52.834Z,98146.22
2018-10-16T00:59:22.032Z,98142.83
2018-10-16T01:01:51.246Z,98151.22
2018-10-16T01:04:20.451Z,98148.66
2018-10-16T01:06:49.668Z,98144.47
2018-10-16T01:09:18.883Z,98144.47
2018-10-16T01:11:48.126Z,98140.69
2018-10-16T01:14:17.359Z,98144.47
2018-10-16T01:16:46.604Z,98135.68
2018-10-16T01:19:15.827Z,98124.29
2018-10-16T01:21:45.039Z,98120.89
2018-10-16T01:24:14.252Z,98120.48
2018-10-16T01:26:43.503Z,98116.66
2018-10-16T01:29:12.699Z,98106.16
2018-10-16T01:31:41.920Z,98104.92
2018-10-16T01:34:11.123Z,98107.45
2018-10-16T01:36:40.356Z,98102.38
2018-10-16T01:39:09.559Z,98099.85
2018-10-16T01:41:38.775Z,98101.50
2018-10-16T01:44:07.975Z,98110.28
2018-10-16T01:46:37.188Z,98107.73
2018-10-16T01:49:06.500Z,98095.06
2018-10-16T01:51:35.720Z,98084.56
2018-10-16T01:54:05.132Z,98081.98
2018-10-16T01:56:34.349Z,98075.61
2018-10-16T01:59:03.551Z,98074.23
2018-10-16T02:01:32.763Z,98073.84
2018-10-16T02:04:01.972Z,98071.80
2018-10-16T02:06:31.180Z,98060.82
2018-10-16T02:09:00.386Z,98054.52
2018-10-16T02:11:29.596Z,98042.76
2018-10-16T02:13:58.819Z,98035.20
2018-10-16T02:16:28.611Z,98035.63
2018-10-16T02:18:57.828Z,98041.50
2018-10-16T02:21:27.078Z,98044.48
2018-10-16T02:23:56.826Z,98049.53
2018-10-16T02:26:26.222Z,98049.11
2018-10-16T02:28:55.443Z,98052.48
2018-10-16T02:31:24.653Z,98054.16
2018-10-16T02:33:53.858Z,98052.88
2018-10-16T02:36:23.063Z,98056.66
2018-10-16T02:38:52.369Z,98061.70
2018-10-16T02:41:21.811Z,98064.95
2018-10-16T02:43:51.023Z,98071.70
2018-10-16T02:46:20.226Z,98078.94
2018-10-16T02:48:49.448Z,98079.28
2018-10-16T02:51:18.655Z,98083.83
2018-10-16T02:53:47.863Z,98093.46
2018-10-16T02:56:17.082Z,98099.22
2018-10-16T02:58:46.291Z,98102.54
2018-10-16T03:01:15.494Z,98104.22
2018-10-16T03:03:44.706Z,98104.22
2018-10-16T03:06:13.929Z,98098.33
2018-10-16T03:08:43.134Z,98102.52
2018-10-16T03:11:12.315Z,98100.41
2018-10-16T03:13:41.535Z,98102.49
2018-10-16T03:16:10.724Z,98100.05
2018-10-16T03:18:39.908Z,98092.45
2018-10-16T03:21:09.107Z,98091.12
2018-10-16T03:23:38.295Z,98089.84
2018-10-16T03:26:07.576Z,98088.15
2018-10-16T03:28:36.764Z,98083.13
2018-10-16T03:31:05.938Z,98080.59
2018-10-16T03:33:35.141Z,98077.59
2018-10-16T03:36:04.491Z,98083.11
2018-10-16T03:38:33.686Z,98079.70
2018-10-16T03:41:02.863Z,98079.33
2018-10-16T03:43:32.044Z,98081.07
2018-10-16T03:46:01.227Z,98083.19
2018-10-16T03:48:30.400Z,98084.05
2018-10-16T03:50:59.589Z,98080.63
2018-10-16T03:53:28.776Z,98079.48
2018-10-16T03:55:57.979Z,98083.17
2018-10-16T03:58:27.339Z,98091.58
2018-10-16T04:00:56.521Z,98095.34
2018-10-16T04:03:25.686Z,98095.70
2018-10-16T04:05:54.876Z,98101.94
2018-10-16T04:08:24.051Z,98103.94
2018-10-16T04:10:53.226Z,98101.42
2018-10-16T04:13:22.422Z,98107.23
2018-10-16T04:15:51.616Z,98108.77
2018-10-16T04:18:21.072Z,98106.64
2018-10-16T04:20:50.263Z,98109.47
2018-10-16T04:23:19.436Z,98105.30
2018-10-16T04:25:48.618Z,98105.81
2018-10-16T04:28:17.796Z,98094.52
2018-10-16T04:30:46.987Z,98090.28
2018-10-16T04:33:16.157Z,98087.81
2018-10-16T04:35:45.353Z,98081.52
2018-10-16T04:38:14.744Z,98080.65
2018-10-16T04:40:43.928Z,98081.55
2018-10-16T04:43:13.108Z,98079.05
2018-10-16T04:45:42.300Z,98083.64
2018-10-16T04:48:11.507Z,98080.64
2018-10-16T04:50:40.695Z,98078.99
2018-10-16T04:53:09.883Z,98078.55
2018-10-16T04:55:39.071Z,98076.52
2018-10-16T04:58:08.267Z,98076.22
2018-10-16T05:00:37.464Z,98071.59
2018-10-16T05:03:06.952Z,98072.89
2018-10-16T05:05:36.135Z,98075.36
2018-10-16T05:08:05.608Z,98075.73
2018-10-16T05:10:34.792Z,98076.94
2018-10-16T05:13:03.989Z,98080.14
2018-10-16T05:15:34.110Z,98083.53
2018-10-16T05:18:03.555Z,98078.50
2018-10-16T05:20:32.699Z,98075.61
2018-10-16T05:23:02.020Z,98073.09
2018-10-16T05:25:31.607Z,98073.09
2018-10-16T05:28:00.823Z,98081.91
2018-10-16T05:30:29.991Z,98085.61
2018-10-16T05:32:59.188Z,98076.84
2018-10-16T05:35:28.351Z,98081.83
2018-10-16T05:37:57.542Z,98081.72
2018-10-16T05:40:26.739Z,98081.51
2018-10-16T05:42:55.938Z,98088.20
2018-10-16T05:45:26.001Z,98089.91
2018-10-16T05:47:55.210Z,98090.81
2018-10-16T05:50:24.379Z,98092.19
2018-10-16T05:52:53.562Z,98086.73
2018-10-16T05:55:22.739Z,98097.70
2018-10-16T05:57:51.938Z,98107.79
2018-10-16T06:00:36.276Z,98116.22
2018-10-16T06:03:05.712Z,98119.46
2018-10-16T06:05:35.129Z,98124.05
2018-10-16T06:08:04.280Z,98122.21
2018-10-16T06:10:33.459Z,98118.56
2018-10-16T06:13:02.643Z,98126.16
2018-10-16T06:15:31.820Z,98123.73
2018-10-16T06:18:01.014Z,98125.64
2018-10-16T06:20:30.196Z,98133.98
2018-10-16T06:22:59.371Z,98137.04
2018-10-16T06:25:28.548Z,98140.87
2018-10-16T06:27:57.739Z,98144.16
2018-10-16T06:30:26.973Z,98153.56
2018-10-16T06:32:56.100Z,98154.06
2018-10-16T06:35:25.274Z,98155.06
2018-10-16T06:37:54.476Z,98151.35
2018-10-16T06:40:23.664Z,98150.18
2018-10-16T06:42:52.843Z,98153.59
2018-10-16T06:45:22.091Z,98159.14
2018-10-16T06:47:51.304Z,98157.44
2018-10-16T06:50:20.403Z,98167.61
2018-10-16T06:52:49.603Z,98165.98
2018-10-16T06:55:18.845Z,98172.77
2018-10-16T06:57:47.979Z,98179.18
2018-10-16T07:00:17.206Z,98177.58
2018-10-16T07:02:46.383Z,98190.67
2018-10-16T07:05:15.565Z,98189.84
2018-10-16T07:07:44.739Z,98189.85
2018-10-16T07:10:13.931Z,98193.28
2018-10-16T07:12:43.112Z,98190.35
2018-10-16T07:15:12.304Z,98197.96
2018-10-16T07:17:41.483Z,98201.39
2018-10-16T07:20:10.791Z,98200.20
2018-10-16T07:22:39.980Z,98203.62
2018-10-16T07:25:09.691Z,98204.51
2018-10-16T07:27:38.917Z,98204.11
2018-10-16T07:30:12.576Z,98199.47
2018-10-16T07:32:41.680Z,98205.41
2018-10-16T07:35:11.196Z,98212.59
2018-10-16T07:37:40.931Z,98211.77
2018-10-16T07:40:11.331Z,98228.27
2018-10-16T07:42:41.031Z,98229.53
2018-10-16T07:45:10.236Z,98231.63
2018-10-16T07:47:39.437Z,98239.60
2018-10-16T07:50:10.993Z,98241.70
2018-10-16T07:52:40.167Z,98245.48
2018-10-16T07:55:11.942Z,98253.08
2018-10-16T07:57:41.444Z,98255.13
2018-10-16T08:00:12.129Z,98250.42
2018-10-16T08:02:42.396Z,98257.13
2018-10-16T08:05:12.221Z,98246.92
2018-10-16T08:07:42.015Z,98249.42
2018-10-16T08:10:12.715Z,98263.29
2018-10-16T08:12:42.455Z,98264.91
2018-10-16T08:15:11.971Z,98264.78
2018-10-16T08:17:41.784Z,98268.93
2018-10-16T08:20:10.983Z,98272.20
2018-10-16T08:22:40.177Z,98274.69
2018-10-16T08:25:09.375Z,98274.69
2018-10-16T08:27:38.555Z,98277.05
2018-10-16T08:30:08.914Z,98279.80
2018-10-16T08:32:38.083Z,98280.17
2018-10-16T08:35:07.277Z,98277.08
2018-10-16T08:39:53.711Z,98275.66
2018-10-16T08:43:44.108Z,98277.42
2018-10-16T08:46:30.711Z,98274.91
2018-10-16T08:49:17.139Z,98281.00
2018-10-16T08:51:48.094Z,98283.03
2018-10-16T08:54:17.281Z,98284.42
2018-10-16T08:56:46.659Z,98283.84
2018-10-16T08:59:15.839Z,98286.57
2018-10-16T09:01:45.040Z,98280.48
2018-10-16T09:04:14.451Z,98275.75
2018-10-16T09:06:43.703Z,98282.84
2018-10-16T09:09:15.819Z,98284.02
2018-10-16T09:11:46.242Z,98288.97
2018-10-16T09:14:16.197Z,98294.05
2018-10-16T09:16:45.375Z,98291.83
2018-10-16T09:19:14.582Z,98291.92
2018-10-16T09:21:43.810Z,98290.27
2018-10-16T09:24:13.019Z,98294.21
2018-10-16T09:26:42.252Z,98285.37
2018-10-16T09:29:11.496Z,98282.45
2018-10-16T09:31:40.724Z,98294.46
2018-10-16T09:34:09.937Z,98290.89
2018-10-16T09:36:39.174Z,98292.59
2018-10-16T09:39:10.691Z,98285.15
2018-10-16T09:41:39.908Z,98280.48
2018-10-16T09:44:09.131Z,98283.25
2018-10-16T09:46:38.904Z,98274.88
2018-10-16T09:49:08.132Z,98278.89
2018-10-16T09:51:37.352Z,98275.24
2018-10-16T09:54:06.568Z,98267.67
2018-10-16T09:56:35.774Z,98261.92
2018-10-16T09:59:05.002Z,98253.70
2018-10-16T10:01:39.599Z,98262.22
2018-10-16T10:04:08.831Z,98248.67
2018-10-16T10:06:38.061Z,98251.31
2018-10-16T10:09:11.204Z,98236.42
2018-10-16T10:11:40.503Z,98232.09
2018-10-16T10:14:10.067Z,98221.38
2018-10-16T10:16:39.607Z,98220.02
2018-10-16T10:19:08.799Z,98221.00
2018-10-16T10:21:38.028Z,98239.75
2018-10-16T10:24:07.320Z,98217.64
2018-10-16T10:26:36.508Z,98403.59
2018-10-16T10:29:05.726Z,98325.44
2018-10-16T10:31:34.948Z,98226.03
2018-10-16T10:34:04.169Z,98202.02
2018-10-16T10:36:33.379Z,98236.77
2018-10-16T10:39:02.631Z,98267.27
2018-10-16T10:41:31.843Z,98253.78
2018-10-16T10:44:01.059Z,98217.83
2018-10-16T10:46:30.272Z,98192.53
2018-10-16T10:48:59.492Z,98164.13
2018-10-16T10:51:28.884Z,98104.91
2018-10-16T10:53:57.922Z,98131.43
2018-10-16T10:56:27.160Z,98160.03
2018-10-16T10:58:56.343Z,98161.42
2018-10-16T11:01:25.562Z,98165.02
2018-10-16T11:03:54.760Z,98192.63
2018-10-16T11:06:23.966Z,98199.73
2018-10-16T11:08:53.173Z,98201.27
2018-10-16T11:11:22.324Z,98204.20
2018-10-16T11:13:51.501Z,98215.56
2018-10-16T11:16:20.675Z,98218.55
2018-10-16T11:18:49.857Z,98223.34
2018-10-16T11:21:19.042Z,98227.45
2018-10-16T11:23:48.223Z,98223.42
2018-10-16T11:26:17.395Z,98237.42
2018-10-16T11:28:46.583Z,98231.81
2018-10-16T11:31:15.764Z,98227.44
2018-10-16T11:33:44.936Z,98233.09
2018-10-16T11:36:14.121Z,98236.73
2018-10-16T11:38:43.294Z,98230.63
2018-10-16T11:41:12.480Z,98238.11
2018-10-16T11:43:41.664Z,98237.72
2018-10-16T11:46:10.848Z,98240.84
2018-10-16T11:48:40.052Z,98247.77
2018-10-16T11:51:09.227Z,98242.91
2018-10-16T11:53:38.400Z,98243.53
2018-10-16T11:56:07.659Z,98246.36
2018-10-16T11:58:36.791Z,98246.67
2018-10-16T12:01:05.964Z,98253.11
2018-10-16T12:03:35.144Z,98256.91
2018-10-16T12:06:04.412Z,98252.23
2018-10-16T12:08:33.565Z,98248.97
2018-10-16T12:11:02.774Z,98247.80
2018-10-16T12:13:32.088Z,98244.34
2018-10-16T12:16:01.265Z,98246.50
2018-10-16T12:18:37.315Z,98243.68
2018-10-16T12:21:10.738Z,98248.09
2018-10-16T12:23:39.932Z,98243.36
2018-10-16T12:26:09.019Z,98241.16
2018-10-16T12:28:38.201Z,98247.71
2018-10-16T12:31:07.413Z,98243.98
2018-10-16T12:33:36.627Z,98246.89
2018-10-16T12:36:05.811Z,98240.78
2018-10-16T12:38:35.131Z,98238.61
2018-10-16T12:41:04.555Z,98231.28
2018-10-16T12:43:33.956Z,98237.58
2018-10-16T12:46:02.936Z,98232.80
2018-10-16T12:48:32.168Z,98233.02
2018-10-16T12:51:01.400Z,98235.20
2018-10-16T12:53:30.528Z,98228.58
2018-10-16T12:55:59.735Z,98229.52
2018-10-16T12:58:28.896Z,98231.64
2018-10-16T13:00:58.094Z,98237.59
2018-10-16T13:03:27.302Z,98236.92
2018-10-16T13:05:56.447Z,98236.32
2018-10-16T13:08:25.631Z,98238.36
2018-10-16T13:10:54.867Z,98232.92
2018-10-16T13:13:24.043Z,98238.53
2018-10-16T13:15:53.300Z,98246.41
2018-10-16T13:18:22.447Z,98237.41
2018-10-16T13:20:51.646Z,98234.88
2018-10-16T13:23:20.877Z,98235.70
2018-10-16T13:25:50.067Z,98237.41
2018-10-16T13:28:19.279Z,98238.19
2018-10-16T13:30:48.483Z,98238.88
2018-10-16T13:33:17.684Z,98240.78
2018-10-16T13:35:46.887Z,98243.33
2018-10-16T13:38:16.096Z,98241.50
2018-10-16T13:40:45.308Z,98245.34
2018-10-16T13:43:14.531Z,98250.03
2018-10-16T13:45:43.731Z,98249.43
2018-10-16T13:48:12.939Z,98241.11
2018-10-16T13:50:42.138Z,98241.50
2018-10-16T13:53:11.363Z,98249.64
2018-10-16T13:55:40.567Z,98252.33
2018-10-16T13:58:09.817Z,98251.38
2018-10-16T14:00:39.023Z,98256.14
2018-10-16T14:03:08.236Z,98255.52
2018-10-16T14:05:37.452Z,98250.73
2018-10-16T14:08:07.127Z,98251.64
2018-10-16T14:10:36.313Z,98244.62
2018-10-16T14:13:06.392Z,98241.97
2018-10-16T14:15:35.592Z,98244.27
2018-10-16T14:18:05.218Z,98248.59
2018-10-16T14:20:34.439Z,98250.34
2018-10-16T14:23:03.652Z,98250.32
2018-10-16T14:25:32.864Z,98253.88
2018-10-16T14:28:02.095Z,98241.89
2018-10-16T14:30:31.280Z,98245.16
2018-10-16T14:33:00.487Z,98243.50
2018-10-16T14:35:29.739Z,98246.69
2018-10-16T14:37:58.933Z,98247.52
2018-10-16T14:40:28.206Z,98251.86
2018-10-16T14:42:57.340Z,98245.34
2018-10-16T14:45:26.552Z,98242.35
2018-10-16T14:47:55.804Z,98251.57
2018-10-16T14:50:24.978Z,98253.23
2018-10-16T14:52:54.183Z,98249.77
2018-10-16T14:55:23.396Z,98247.84
2018-10-16T14:57:52.645Z,98250.09
2018-10-16T15:00:21.911Z,98249.43
2018-10-16T15:02:51.116Z,98247.54
2018-10-16T15:05:20.328Z,98249.69
2018-10-16T15:07:49.527Z,98244.91
2018-10-16T15:10:18.731Z,98243.73
2018-10-16T15:12:47.900Z,98244.97
2018-10-16T15:15:17.088Z,98243.84
2018-10-16T15:17:46.252Z,98241.88
2018-10-16T15:20:15.487Z,98243.44
2018-10-16T15:22:44.608Z,98241.88
2018-10-16T15:25:13.800Z,98235.19
2018-10-16T15:27:42.976Z,98244.30
2018-10-16T15:30:12.168Z,98245.98
2018-10-16T15:32:41.375Z,98241.23
2018-10-16T15:35:11.023Z,98243.27
2018-10-16T15:37:40.443Z,98235.73
2018-10-16T15:40:11.444Z,98238.08
2018-10-16T15:42:41.196Z,98231.31
2018-10-16T15:45:11.895Z,98229.11
2018-10-16T15:47:41.736Z,98227.45
2018-10-16T15:50:11.554Z,98225.80
2018-10-16T15:52:40.929Z,98233.38
2018-10-16T15:55:11.263Z,98225.41
2018-10-16T15:57:40.509Z,98226.50
2018-10-16T16:00:14.348Z,98226.66
2018-10-16T16:02:43.447Z,98223.55
2018-10-16T16:05:12.668Z,98215.06
2018-10-16T16:07:41.935Z,98203.58
2018-10-16T16:10:14.162Z,98200.39
2018-10-16T16:12:43.392Z,98195.98
2018-10-16T16:15:13.439Z,98176.28
2018-10-16T16:17:43.158Z,98159.87
2018-10-16T16:20:13.767Z,98157.39
2018-10-16T16:22:42.896Z,98160.37
2018-10-16T16:25:13.404Z,98168.94
2018-10-16T16:27:42.658Z,98178.59
2018-10-16T16:30:14.718Z,98188.05
2018-10-16T16:32:43.851Z,98195.80
2018-10-16T16:35:13.108Z,98204.48
2018-10-16T16:37:42.355Z,98203.13
2018-10-16T16:40:13.212Z,98214.41
2018-10-16T16:42:42.611Z,98218.31
2018-10-16T16:45:12.416Z,98230.61
2018-10-16T16:47:41.644Z,98235.14
2018-10-16T16:50:12.133Z,98251.89
2018-10-16T16:52:42.061Z,98267.85
2018-10-16T16:55:13.195Z,98289.50
2018-10-16T16:57:42.583Z,98327.11
2018-10-16T17:00:12.925Z,98318.22
2018-10-16T17:02:43.256Z,98317.22
2018-10-16T17:05:12.956Z,98345.91
2018-10-16T17:07:42.662Z,98372.54
2018-10-16T17:10:12.000Z,98354.43
2018-10-16T17:12:41.679Z,98348.83
2018-10-16T17:15:15.072Z,98337.95
2018-10-16T17:17:45.124Z,98337.47
2018-10-16T17:20:14.297Z,98412.47
2018-10-16T17:22:43.552Z,98408.76
2018-10-16T17:25:14.101Z,98478.56
2018-10-16T17:27:43.943Z,98482.59
2018-10-16T17:30:15.490Z,98491.08
2018-10-16T17:32:45.097Z,98613.18
2018-10-16T17:35:14.643Z,98571.41
2018-10-16T17:37:43.899Z,98496.06
2018-10-16T17:40:14.432Z,98478.55
2018-10-16T17:42:43.770Z,98472.81
2018-10-16T17:45:14.437Z,98477.20
2018-10-16T17:47:43.714Z,98463.02
2018-10-16T17:50:15.298Z,98466.34
2018-10-16T17:52:44.524Z,98474.89
2018-10-16T17:55:14.420Z,98477.72
2018-10-16T17:57:43.682Z,98476.12
2018-10-16T18:00:15.374Z,98478.42
2018-10-16T18:02:44.984Z,98486.22
2018-10-16T18:05:14.672Z,98487.62
2018-10-16T18:07:44.498Z,98491.27
2018-10-16T18:10:13.722Z,98495.22
2018-10-16T18:12:42.915Z,98499.63
2018-10-16T18:15:13.347Z,98504.02
2018-10-16T18:17:43.142Z,98509.61
2018-10-16T18:20:14.466Z,98505.01
2018-10-16T18:22:44.087Z,98502.88
2018-10-16T18:25:13.500Z,98508.38
2018-10-16T18:27:43.611Z,98513.05
2018-10-16T18:30:13.119Z,98515.83
2018-10-16T18:32:42.412Z,98486.61
2018-10-16T18:35:11.815Z,98465.42
2018-10-16T18:37:41.939Z,98444.07
2018-10-16T18:40:11.977Z,98431.72
2018-10-16T18:42:41.560Z,98419.89
2018-10-16T18:45:12.284Z,98416.11
2018-10-16T18:47:41.532Z,98407.08
2018-10-16T18:50:12.109Z,98399.42
2018-10-16T18:52:41.642Z,98389.27
2018-10-16T18:55:12.231Z,98380.87
2018-10-16T18:57:41.615Z,98386.56
2018-10-16T19:00:13.619Z,98389.95
2018-10-16T19:02:43.076Z,98399.61
2018-10-16T19:05:12.272Z,98399.55
2018-10-16T19:07:41.851Z,98403.45
2018-10-16T19:10:11.107Z,98401.16
2018-10-16T19:12:41.251Z,98399.00
2018-10-16T19:15:12.217Z,98403.27
2018-10-16T19:17:42.121Z,98408.08
2018-10-16T19:20:12.634Z,98400.41
2018-10-16T19:22:42.584Z,98406.42
2018-10-16T19:25:12.880Z,98401.81
2018-10-16T19:27:42.110Z,98401.88
2018-10-16T19:30:12.184Z,98405.91
2018-10-16T19:32:41.408Z,98419.80
2018-10-16T19:35:12.116Z,98419.45
2018-10-16T19:37:41.475Z,98421.80
2018-10-16T19:40:10.701Z,98418.52
2018-10-16T19:42:39.996Z,98428.41
2018-10-16T19:45:10.221Z,98424.73
2018-10-16T19:47:39.620Z,98428.81
2018-10-16T19:50:09.922Z,98431.03
2018-10-16T19:52:39.236Z,98426.36
2018-10-16T19:55:08.441Z,98422.00
2018-10-16T19:57:37.711Z,98423.07
2018-10-16T20:00:08.171Z,98424.34
2018-10-16T20:02:37.310Z,98430.34
2018-10-16T20:05:07.072Z,98428.27
2018-10-16T20:07:36.303Z,98423.27
2018-10-16T20:10:06.750Z,98431.08
2018-10-16T20:12:36.118Z,98432.50
2018-10-16T20:15:07.293Z,98428.83
2018-10-16T20:17:36.619Z,98429.80
2018-10-16T20:20:06.630Z,98431.08
2018-10-16T20:22:35.868Z,98430.67
2018-10-16T20:25:06.390Z,98425.48
2018-10-16T20:27:35.571Z,98428.91
2018-10-16T20:30:05.760Z,98430.98
2018-10-16T20:32:34.992Z,98425.53
2018-10-16T20:35:04.657Z,98433.31
2018-10-16T20:37:33.915Z,98434.28
2018-10-16T20:40:03.122Z,98439.46
2018-10-16T20:42:32.323Z,98437.83
2018-10-16T20:45:01.622Z,98436.34
2018-10-16T20:47:30.987Z,98435.55
2018-10-16T20:50:00.161Z,98431.00
2018-10-16T20:52:29.388Z,98428.05
2018-10-16T20:54:59.131Z,98431.04
2018-10-16T20:57:28.361Z,98434.96
2018-10-16T20:59:58.373Z,98432.95
2018-10-16T21:02:27.588Z,98430.06
2018-10-16T21:04:57.000Z,98434.38
2018-10-16T21:07:26.043Z,98433.13
2018-10-16T21:09:55.207Z,98426.70
2018-10-16T21:12:24.397Z,98422.80
2018-10-16T21:14:53.574Z,98418.94
2018-10-16T21:17:22.755Z,98415.56
2018-10-16T21:19:51.971Z,98417.39
2018-10-16T21:22:21.119Z,98415.75
2018-10-16T21:24:50.440Z,98415.37
2018-10-16T21:27:19.608Z,98417.02
2018-10-16T21:29:48.785Z,98406.72
2018-10-16T21:32:17.975Z,98408.30
2018-10-16T21:34:47.171Z,98404.26
2018-10-16T21:37:16.411Z,98399.92
2018-10-16T21:39:45.523Z,98405.94
2018-10-16T21:42:14.691Z,98409.91
2018-10-16T21:44:43.889Z,98402.05
2018-10-16T21:47:13.119Z,98402.59
2018-10-16T21:49:42.297Z,98401.41
2018-10-16T21:52:11.510Z,98389.92
2018-10-16T21:54:40.679Z,98396.66
2018-10-16T21:57:09.868Z,98382.06
2018-10-16T21:59:39.093Z,98380.05
2018-10-16T22:02:13.619Z,98374.59
2018-10-16T22:04:42.842Z,98368.39
2018-10-16T22:07:12.081Z,98367.70
2018-10-16T22:09:41.231Z,98361.62
2018-10-16T22:12:10.435Z,98360.70
2018-10-16T22:14:39.642Z,98361.51
2018-10-16T22:17:08.883Z,98360.64
2018-10-16T22:19:38.083Z,98353.51
2018-10-16T22:22:07.335Z,98353.83
2018-10-16T22:24:36.547Z,98349.29
2018-10-16T22:27:05.971Z,98347.03
2018-10-16T22:29:35.260Z,98350.14
2018-10-16T22:32:04.390Z,98348.16
2018-10-16T22:34:33.599Z,98341.50
2018-10-16T22:37:02.833Z,98336.48
2018-10-16T22:39:32.067Z,98331.72
2018-10-16T22:42:01.275Z,98328.95
2018-10-16T22:44:30.466Z,98326.33
2018-10-16T22:46:59.655Z,98326.21
2018-10-16T22:49:28.806Z,98335.53
2018-10-16T22:51:57.987Z,98336.04
2018-10-16T22:54:27.163Z,98338.16
2018-10-16T22:56:56.340Z,98337.55
2018-10-16T22:59:25.523Z,98341.91
2018-10-16T23:01:54.703Z,98346.02
2018-10-16T23:04:23.871Z,98346.10
2018-10-16T23:06:53.062Z,98341.47
2018-10-16T23:09:22.235Z,98334.77
2018-10-16T23:11:51.423Z,98324.27
2018-10-16T23:14:20.594Z,98319.27
2018-10-16T23:16:49.776Z,98307.53
2018-10-16T23:19:18.975Z,98302.11
2018-10-16T23:21:48.155Z,98272.66
2018-10-16T23:24:17.326Z,98263.59
2018-10-16T23:26:46.518Z,98261.74
2018-10-16T23:29:15.742Z,98253.00
2018-10-16T23:31:44.883Z,98257.34
2018-10-16T23:34:14.077Z,98250.22
2018-10-16T23:36:43.275Z,98246.50
2018-10-16T23:39:14.475Z,98241.00
2018-10-16T23:41:44.187Z,98238.92
2018-10-16T23:44:13.367Z,98233.46
2018-10-16T23:46:42.555Z,98224.57
2018-10-16T23:49:11.829Z,98219.50
2018-10-16T23:51:40.950Z,98218.18
2018-10-16T23:54:10.134Z,98204.66
2018-10-16T23:56:39.306Z,98172.96
2018-10-16T23:59:08.553Z,98082.85
